KSTS/STS METAR and TAF weather

Enter ICAO airport designator
Station Type Date Time Source
KSTS METAR 2021/09/28 16:53 UTC NOAA

KSTS 281653Z 36010KT 10SM CLR 18/07 A3009 RMK AO2 SLP184 T01780072


Station Type Date Time Source
KSTS Decoded METAR 2021/09/28 16:53 UTC NOAA

SANTA ROSA SONOMA COUNTY, CA, United States (KSTS) 38-30N 122-49W 39M
Sep 28, 2021 - 12:53 PM EDT / 2021.09.28 1653 UTC
Wind: from the N (360 degrees) at 12 MPH (10 KT):0
Visibility: 10 mile(s):0
Sky conditions: clear
Temperature: 64.0 F (17.8 C)
Dew Point: 45.0 F (7.2 C)
Relative Humidity: 49%
Pressure (altimeter): 30.09 in. Hg (1018 hPa)
ob: KSTS 281653Z 36010KT 10SM CLR 18/07 A3009 RMK AO2 SLP184 T01780072
cycle: 17

Station Type Date Time Source
KSTS TAF 2021/09/28 18:32 UTC NOAA

TAF KSTS 281732Z 2818/2918 34008KT P6SM SKC
FM282000 32010G15KT P6SM SKC
FM290400 32006KT P6SM SKC WS010/34030KT
FM290600 VRB04KT P6SM SKC

Example: see airport list